CheckWX is a tool to help pilots better visualize weather data.  It is not intended as a substitute for an official pre-flight weather briefing.

13:54:03 UTC

KCIN METAR
Arthur N Neu Airport
Carroll, Iowa, USA
Current

19 mins ago

KCIN 211335Z AUTO 19014G23KT 10SM SCT014 OVC031 23/21 A2986 RMK AO2
Observed
Sep-21 @ 13:35 UTC
Wind
  • 190° at 14 KTS
  • Gusting to 23 KTS
Visibility
10 SM
Flight Rules
VFR
Cloud Levels
  • Scattered at 1,400' AGL
  • Overcast at 3,100' AGL
Temperature
23°C / 73°F
Dewpoint
21°C / 70°F
Humidity
89%
Altimeter
29.86" Hg
Pressure
1011.22 hPa
Previous

39 mins ago

KCIN 211315Z AUTO 19016G21KT 10SM FEW012 BKN033 OVC040 23/21 A2984 RMK AO2
Observed
Sep-21 @ 13:15 UTC
Wind
  • 190° at 16 KTS
  • Gusting to 21 KTS
Visibility
10 SM
Flight Rules
VFR
Cloud Levels
  • Few at 1,200' AGL
  • Broken at 3,300' AGL
  • Overcast at 4,000' AGL
Temperature
23°C / 73°F
Dewpoint
21°C / 70°F
Humidity
89%
Altimeter
29.84" Hg
Pressure
1010.52 hPa
Previous

59 mins ago

KCIN 211255Z AUTO 18016G25KT BKN011 OVC039 23/21 A2984 RMK AO2
Observed
Sep-21 @ 12:55 UTC
Wind
  • 180° at 16 KTS
  • Gusting to 25 KTS
Visibility
Cloud Levels
  • Broken at 1,100' AGL
  • Overcast at 3,900' AGL
Temperature
23°C / 73°F
Dewpoint
21°C / 70°F
Humidity
89%
Altimeter
29.84" Hg
Pressure
1010.52 hPa